Time;durP1;ratioP1;P1;durP2;ratioP2;P2;SDS_P1;SDS_P2;PMS_P1;PMS_P2;Temp;Humidity;BMP_temperature;BMP_pressure;BME280_temperature;BME280_humidity;BME280_pressure;Samples;Min_cycle;Max_cycle;Signal;HPM_P1;HPM_P2
2023/09/13 00:01:12;;;;;;;5.50;1.52;;;;;;;17.44;100.00;100635.16;4999970;28;20031;-67
2023/09/13 00:03:38;;;;;;;5.30;1.48;;;;;;;17.45;100.00;100636.81;4983356;28;20033;-67
2023/09/13 00:06:04;;;;;;;5.30;1.58;;;;;;;17.45;100.00;100633.19;4999699;28;20034;-67
2023/09/13 00:08:29;;;;;;;3.08;1.40;;;;;;;17.41;100.00;100635.81;4983027;28;20195;-67
2023/09/13 00:11:02;;;;;;;4.97;1.67;;;;;;;17.43;100.00;100639.13;4982766;28;20360;-67
2023/09/13 00:13:27;;;;;;;;;;;;;;;17.42;100.00;100638.31;5000030;28;20034;-67
2023/09/13 00:15:53;;;;;;;3.47;1.42;;;;;;;17.37;100.00;100640.47;4999413;28;19916;-67
2023/09/13 00:18:18;;;;;;;5.13;1.48;;;;;;;17.34;100.00;100636.34;4983134;28;20050;-67
2023/09/13 00:20:44;;;;;;;3.50;1.38;;;;;;;17.31;100.00;100636.22;4999087;28;20031;-67
2023/09/13 00:23:09;;;;;;;3.95;1.20;;;;;;;17.25;100.00;100645.97;4999139;28;20042;-67
2023/09/13 00:25:35;;;;;;;4.93;1.42;;;;;;;17.24;100.00;100639.53;4999315;28;20391;-67
2023/09/13 00:28:00;;;;;;;5.35;1.45;;;;;;;17.19;100.00;100650.97;5000545;28;20387;-67
2023/09/13 00:30:26;;;;;;;4.38;1.48;;;;;;;17.13;100.00;100652.28;4982927;28;20026;-66
2023/09/13 00:32:51;;;;;;;4.03;1.50;;;;;;;17.07;100.00;100651.63;4966822;28;20037;-67
2023/09/13 00:35:17;;;;;;;4.07;1.40;;;;;;;17.04;100.00;100654.28;4999004;28;20478;-67
2023/09/13 00:37:42;;;;;;;3.05;1.50;;;;;;;16.97;100.00;100652.81;4982525;28;20040;-67
2023/09/13 00:40:08;;;;;;;3.30;1.63;;;;;;;16.93;100.00;100653.81;4966585;28;20030;-67
2023/09/13 00:42:34;;;;;;;3.55;1.40;;;;;;;16.87;100.00;100650.38;4982875;28;20027;-67
2023/09/13 00:44:59;;;;;;;4.78;1.42;;;;;;;16.84;100.00;100653.84;4982574;28;20038;-67
2023/09/13 00:47:25;;;;;;;2.53;1.20;;;;;;;16.84;100.00;100648.22;4998932;28;20037;-68
2023/09/13 00:49:50;;;;;;;5.88;1.50;;;;;;;16.73;100.00;100649.69;4982534;28;20030;-67
2023/09/13 00:52:16;;;;;;;4.72;1.35;;;;;;;16.66;100.00;100650.22;4994681;28;20026;-67
2023/09/13 00:54:41;;;;;;;3.78;1.50;;;;;;;16.67;100.00;100640.63;4979066;28;20097;-67
2023/09/13 00:57:07;;;;;;;4.05;1.55;;;;;;;16.56;100.00;100639.34;4982722;28;20034;-66
2023/09/13 00:59:32;;;;;;;5.05;1.40;;;;;;;16.50;100.00;100647.09;4982376;28;20494;-67
2023/09/13 01:01:58;;;;;;;4.55;1.40;;;;;;;16.43;100.00;100640.31;4982499;28;20062;-66
2023/09/13 01:04:24;;;;;;;3.28;1.30;;;;;;;16.42;100.00;100650.72;4982356;28;20018;-67
2023/09/13 01:06:49;;;;;;;4.93;1.67;;;;;;;16.39;100.00;100642.97;4982226;28;20037;-67
2023/09/13 01:09:15;;;;;;;3.90;1.40;;;;;;;16.32;100.00;100645.44;4998144;28;20042;-66
2023/09/13 01:11:41;;;;;;;2.67;1.23;;;;;;;16.27;100.00;100649.25;4981959;28;20054;-66
2023/09/13 01:14:06;;;;;;;2.97;1.17;;;;;;;16.22;100.00;100643.78;4977474;28;20407;-66
2023/09/13 01:16:45;;;;;;;3.08;1.40;;;;;;;16.17;100.00;100646.75;4973873;28;20030;-67
2023/09/13 01:19:29;;;;;;;3.83;1.75;;;;;;;16.10;100.00;100638.00;4983064;28;20034;-67
2023/09/13 01:22:32;;;;;;;6.40;1.70;;;;;;;16.09;100.00;100645.59;5014440;28;20098;-67
2023/09/13 01:25:00;;;;;;;3.27;1.27;;;;;;;15.99;100.00;100643.13;4999354;28;20393;-67
2023/09/13 01:27:55;;;;;;;2.35;1.17;;;;;;;15.98;100.00;100657.44;4999441;28;20035;-67
2023/09/13 01:30:20;;;;;;;2.47;1.15;;;;;;;15.93;100.00;100650.00;4983657;28;20053;-67
2023/09/13 01:32:46;;;;;;;3.40;1.27;;;;;;;15.90;100.00;100647.88;4981718;28;20042;-67
2023/09/13 01:35:12;;;;;;;4.35;1.20;;;;;;;15.80;100.00;100651.81;4965590;28;20026;-66
2023/09/13 01:37:37;;;;;;;2.72;1.25;;;;;;;15.78;100.00;100661.69;4998893;28;20121;-67
2023/09/13 01:40:06;;;;;;;4.75;1.50;;;;;;;15.73;100.00;100651.44;4981709;28;20030;-67
2023/09/13 01:42:32;;;;;;;3.72;1.33;;;;;;;15.73;100.00;100657.06;4982049;28;20033;-67
2023/09/13 01:44:57;;;;;;;2.55;1.40;;;;;;;15.68;100.00;100657.19;4981590;28;20394;-67
2023/09/13 01:47:23;;;;;;;3.67;1.40;;;;;;;15.62;100.00;100650.88;4981725;28;20030;-67
2023/09/13 01:49:48;;;;;;;3.53;1.35;;;;;;;15.57;100.00;100651.06;4997545;28;20030;-67
2023/09/13 01:52:13;;;;;;;6.63;1.50;;;;;;;15.53;100.00;100649.22;4981206;28;20063;-67
2023/09/13 01:54:39;;;;;;;5.00;1.50;;;;;;;15.50;100.00;100652.69;4981373;28;20034;-66
2023/09/13 01:57:04;;;;;;;3.55;1.33;;;;;;;15.50;100.00;100647.91;4981599;28;20403;-67
2023/09/13 01:59:32;;;;;;;3.95;1.48;;;;;;;15.44;100.00;100653.97;4997532;28;20042;-67
2023/09/13 02:01:57;;;;;;;2.90;1.27;;;;;;;15.39;100.00;100655.75;4964764;28;20117;-67
2023/09/13 02:04:24;;;;;;;3.03;1.30;;;;;;;15.38;100.00;100651.31;4983900;28;20037;-67
2023/09/13 02:06:49;;;;;;;3.85;1.45;;;;;;;15.33;100.00;100659.84;4997418;28;20034;-66
2023/09/13 02:09:16;;;;;;;11.30;2.10;;;;;;;15.29;100.00;100661.63;4997114;28;20031;-67
2023/09/13 02:11:41;;;;;;;2.70;1.45;;;;;;;15.24;100.00;100658.16;4980904;28;20054;-67
2023/09/13 02:14:07;;;;;;;3.42;1.10;;;;;;;15.24;100.00;100661.78;4998388;28;20092;-66
2023/09/13 02:16:32;;;;;;;4.57;1.48;;;;;;;15.24;100.00;100660.94;4981060;28;20026;-67
2023/09/13 02:18:58;;;;;;;4.32;1.33;;;;;;;15.16;100.00;100657.81;4981292;28;20483;-67
2023/09/13 02:21:23;;;;;;;5.45;1.30;;;;;;;15.14;100.00;100664.84;4980746;28;20023;-67
2023/09/13 02:23:49;;;;;;;3.15;1.33;;;;;;;15.11;100.00;100657.13;4997057;28;20038;-67
2023/09/13 02:26:21;;;;;;;5.43;1.45;;;;;;;15.10;100.00;100661.03;4997154;28;20028;-67
2023/09/13 02:28:46;;;;;;;5.03;1.43;;;;;;;15.08;100.00;100657.75;4980719;28;20038;-67
2023/09/13 02:31:12;;;;;;;4.43;1.20;;;;;;;15.02;100.00;100661.84;4980851;28;20125;-67
2023/09/13 02:33:38;;;;;;;2.83;1.45;;;;;;;14.98;100.00;100662.47;4980802;28;20030;-67
2023/09/13 02:36:03;;;;;;;5.13;1.30;;;;;;;14.95;100.00;100660.31;4980641;28;20033;-67
2023/09/13 02:38:29;;;;;;;4.85;1.40;;;;;;;14.88;100.00;100662.75;4996771;28;20372;-66
2023/09/13 02:40:54;;;;;;;2.90;1.05;;;;;;;14.86;100.00;100664.22;4980738;28;20115;-67
2023/09/13 02:43:20;;;;;;;3.15;1.20;;;;;;;14.85;100.00;100662.53;4996814;28;20042;-66
2023/09/13 02:45:45;;;;;;;3.15;1.42;;;;;;;14.85;100.00;100665.34;4996919;28;20038;-67
2023/09/13 02:48:10;;;;;;;4.75;1.23;;;;;;;14.80;100.00;100663.50;4964417;28;20028;-67
2023/09/13 02:50:40;;;;;;;3.45;1.30;;;;;;;14.77;100.00;100669.75;4996819;28;20493;-66
2023/09/13 02:53:06;;;;;;;2.03;1.10;;;;;;;14.78;100.00;100664.97;4964225;28;20037;-66
2023/09/13 02:55:31;;;;;;;3.47;1.35;;;;;;;14.73;100.00;100672.31;4996849;28;20030;-67
2023/09/13 02:57:56;;;;;;;4.63;1.30;;;;;;;14.69;100.00;100670.50;4996750;28;20394;-66
2023/09/13 03:00:22;;;;;;;3.13;1.23;;;;;;;14.71;100.00;100671.03;4980659;28;20037;-67
2023/09/13 03:02:47;;;;;;;2.15;0.90;;;;;;;14.66;100.00;100676.75;4980494;28;20077;-67
2023/09/13 03:05:13;;;;;;;3.40;1.20;;;;;;;14.65;100.00;100672.28;4996693;28;20061;-66
2023/09/13 03:07:38;;;;;;;3.72;1.10;;;;;;;14.60;100.00;100680.78;4996062;28;20027;-67
2023/09/13 03:10:04;;;;;;;3.90;1.17;;;;;;;14.55;100.00;100672.53;4996513;28;20068;-67
2023/09/13 03:12:30;;;;;;;5.13;1.20;;;;;;;14.57;100.00;100675.81;4980089;28;20101;-66
2023/09/13 03:14:56;;;;;;;3.30;1.65;;;;;;;14.53;100.00;100665.28;5000383;28;20038;-67
2023/09/13 03:17:21;;;;;;;3.65;1.30;;;;;;;14.50;100.00;100665.06;4984683;28;20041;-67
2023/09/13 03:19:47;;;;;;;5.78;1.33;;;;;;;14.49;100.00;100669.00;4983967;28;20035;-66
2023/09/13 03:22:12;;;;;;;2.38;1.17;;;;;;;14.41;100.00;100672.56;5000264;28;20030;-67
2023/09/13 03:24:38;;;;;;;4.78;1.40;;;;;;;14.38;100.00;100671.22;4984305;28;20479;-67
2023/09/13 03:27:03;;;;;;;3.53;0.95;;;;;;;14.34;100.00;100672.16;5000237;28;20034;-67
2023/09/13 03:29:29;;;;;;;2.15;1.00;;;;;;;14.36;100.00;100672.69;4984201;28;20034;-67
2023/09/13 03:31:54;;;;;;;4.13;1.20;;;;;;;14.33;100.00;100667.72;5000073;28;20085;-67
2023/09/13 03:34:20;;;;;;;4.60;1.50;;;;;;;14.32;100.00;100669.69;5000356;28;20487;-67
2023/09/13 03:36:45;;;;;;;2.42;1.00;;;;;;;14.23;100.00;100674.34;4999975;28;20030;-66
2023/09/13 03:39:10;;;;;;;2.00;1.27;;;;;;;14.21;100.00;100674.69;5000020;28;20394;-67
2023/09/13 03:41:36;;;;;;;2.75;1.20;;;;;;;14.20;100.00;100675.81;4983792;28;20027;-67
2023/09/13 03:44:03;;;;;;;3.05;1.05;;;;;;;14.18;100.00;100672.53;4983912;28;20085;-66
2023/09/13 03:46:28;;;;;;;3.47;1.30;;;;;;;14.15;100.00;100673.16;4986986;28;20034;-67
2023/09/13 03:48:54;;;;;;;3.38;1.23;;;;;;;14.12;100.00;100673.75;4999852;28;20089;-68
2023/09/13 03:51:19;;;;;;;4.72;1.20;;;;;;;14.12;100.00;100678.53;4999608;28;20056;-67
2023/09/13 03:53:45;;;;;;;4.53;1.35;;;;;;;14.08;100.00;100675.53;4967566;28;20022;-66
2023/09/13 03:56:10;;;;;;;3.42;1.30;;;;;;;14.08;100.00;100678.34;4966936;28;20034;-66
2023/09/13 03:58:36;;;;;;;2.58;1.20;;;;;;;14.04;100.00;100674.50;4967686;28;20030;-66
2023/09/13 04:01:02;;;;;;;2.90;1.10;;;;;;;14.02;100.00;100676.81;4983699;28;20398;-67
2023/09/13 04:03:28;;;;;;;3.88;1.00;;;;;;;13.98;100.00;100679.38;4983780;28;20041;-67
2023/09/13 04:05:53;;;;;;;4.32;1.35;;;;;;;14.00;100.00;100679.06;4983333;28;20034;-66
2023/09/13 04:08:19;;;;;;;4.18;1.30;;;;;;;13.97;100.00;100674.94;4983159;28;20422;-66
2023/09/13 04:10:44;;;;;;;4.55;1.25;;;;;;;13.94;100.00;100671.97;4982877;28;20054;-67
2023/09/13 04:13:10;;;;;;;2.70;1.17;;;;;;;13.93;100.00;100673.06;4983382;28;20037;-67
2023/09/13 04:15:35;;;;;;;3.30;1.17;;;;;;;13.88;100.00;100676.81;4983289;28;20026;-66
2023/09/13 04:18:01;;;;;;;2.83;0.98;;;;;;;13.84;100.00;100682.19;4967122;28;20033;-66
2023/09/13 04:20:26;;;;;;;2.53;1.02;;;;;;;13.83;100.00;100672.16;4998830;28;20034;-67
2023/09/13 04:22:52;;;;;;;3.20;1.10;;;;;;;13.77;100.00;100672.59;4982918;28;20026;-67
2023/09/13 04:25:18;;;;;;;3.85;1.23;;;;;;;13.79;100.00;100673.94;4998560;28;20026;-67
2023/09/13 04:27:44;;;;;;;3.72;1.30;;;;;;;13.76;100.00;100668.13;4999093;28;20042;-67
2023/09/13 04:30:10;;;;;;;4.43;1.38;;;;;;;13.74;100.00;100667.66;4979536;28;20038;-67
2023/09/13 04:32:35;;;;;;;3.58;1.05;;;;;;;13.75;100.00;100677.66;4973734;28;20117;-66
2023/09/13 04:35:01;;;;;;;4.18;1.38;;;;;;;13.74;100.00;100676.84;4966758;28;20038;-67
2023/09/13 04:37:27;;;;;;;3.88;1.23;;;;;;;13.72;100.00;100672.69;4982576;28;20042;-67
2023/09/13 04:39:53;;;;;;;2.78;1.00;;;;;;;13.71;100.00;100673.84;4999006;28;20483;-67
2023/09/13 04:42:18;;;;;;;3.67;1.02;;;;;;;13.66;100.00;100680.34;4982995;28;20092;-66
2023/09/13 04:44:44;;;;;;;4.03;1.35;;;;;;;13.67;100.00;100682.00;4999166;28;20030;-66
2023/09/13 04:47:09;;;;;;;3.65;1.48;;;;;;;13.58;100.00;100667.94;4982682;28;20034;-66
2023/09/13 04:49:36;;;;;;;2.88;1.30;;;;;;;13.60;100.00;100676.84;5000005;28;20084;-67
2023/09/13 04:52:02;;;;;;;4.53;0.90;;;;;;;13.57;100.00;100676.66;4998544;28;20039;-66
2023/09/13 04:54:28;;;;;;;3.33;1.25;;;;;;;13.55;100.00;100681.69;4979426;28;20118;-67
2023/09/13 04:56:54;;;;;;;2.78;1.30;;;;;;;13.52;100.00;100685.94;4974547;28;20058;-67
2023/09/13 04:59:23;;;;;;;2.95;1.05;;;;;;;13.50;100.00;100688.19;4979252;28;20039;-67
2023/09/13 05:01:49;;;;;;;3.33;1.02;;;;;;;13.50;100.00;100688.19;4998582;28;20054;-66
2023/09/13 05:04:14;;;;;;;4.97;1.42;;;;;;;13.47;100.00;100690.78;4998548;28;20093;-67
2023/09/13 05:06:39;;;;;;;2.67;0.90;;;;;;;13.48;100.00;100696.03;4982188;28;20042;-66
2023/09/13 05:09:05;;;;;;;3.15;1.42;;;;;;;13.44;100.00;100702.56;4982146;28;20037;-66
2023/09/13 05:11:30;;;;;;;2.28;1.00;;;;;;;13.42;100.00;100702.88;4981926;28;20126;-66
2023/09/13 05:14:15;;;;;;;5.10;1.17;;;;;;;13.40;100.00;100694.00;4982040;28;20030;-67
2023/09/13 05:16:40;;;;;;;4.15;1.05;;;;;;;13.38;100.00;100699.88;4982177;28;20034;-67
2023/09/13 05:19:06;;;;;;;3.20;1.30;;;;;;;13.43;100.00;100700.91;4997856;28;20038;-67
2023/09/13 05:21:33;;;;;;;3.17;1.10;;;;;;;13.32;100.00;100697.50;4998117;28;20027;-66
2023/09/13 05:23:58;;;;;;;2.70;1.17;;;;;;;13.28;100.00;100697.25;4982072;28;20393;-67
2023/09/13 05:26:24;;;;;;;3.00;1.10;;;;;;;13.30;100.00;100702.56;4953855;28;20035;-66
2023/09/13 05:28:49;;;;;;;4.15;0.90;;;;;;;13.28;100.00;100699.22;4997525;28;20049;-67
2023/09/13 05:31:15;;;;;;;5.05;1.63;;;;;;;13.27;100.00;100700.38;4981885;28;20030;-67
2023/09/13 05:33:40;;;;;;;1.60;1.08;;;;;;;13.21;100.00;100701.59;4981850;28;20038;-67
2023/09/13 05:36:09;;;;;;;3.40;1.30;;;;;;;13.21;100.00;100701.59;4997921;28;20505;-67
2023/09/13 05:38:35;;;;;;;3.42;1.00;;;;;;;13.19;100.00;100711.06;4981368;28;20125;-68
2023/09/13 05:41:10;;;;;;;3.85;1.17;;;;;;;13.16;100.00;100711.69;4998042;28;20034;-67
2023/09/13 05:43:40;;;;;;;3.40;1.10;;;;;;;13.15;100.00;100715.63;4997946;28;20034;-67
2023/09/13 05:46:07;;;;;;;3.45;1.13;;;;;;;13.14;100.00;100715.91;4982324;28;20051;-67
2023/09/13 05:48:33;;;;;;;3.60;1.17;;;;;;;13.11;100.00;100708.16;4981555;28;20045;-67
2023/09/13 05:50:58;;;;;;;2.75;1.08;;;;;;;13.13;100.00;100717.06;4981302;28;20061;-67
2023/09/13 05:53:26;;;;;;;4.03;1.42;;;;;;;13.13;100.00;100715.09;4981510;28;20061;-67
2023/09/13 05:55:51;;;;;;;3.22;1.30;;;;;;;13.10;100.00;100717.66;4981774;28;20049;-67
2023/09/13 05:58:17;;;;;;;2.88;1.27;;;;;;;13.11;100.00;100722.09;4982584;28;20031;-66
2023/09/13 06:00:45;;;;;;;4.00;1.42;;;;;;;13.14;100.00;100725.09;4997570;28;20037;-67
2023/09/13 06:03:11;;;;;;;2.97;1.10;;;;;;;13.12;100.00;100718.16;4997695;28;20038;-66
2023/09/13 06:05:36;;;;;;;3.03;1.33;;;;;;;13.11;100.00;100719.31;4995943;28;20399;-66
2023/09/13 06:08:02;;;;;;;3.55;1.02;;;;;;;13.15;100.00;100723.16;4996988;28;20049;-66
2023/09/13 06:10:27;;;;;;;3.67;1.45;;;;;;;13.16;100.00;100717.25;4979651;28;20073;-67
2023/09/13 06:12:53;;;;;;;2.00;1.00;;;;;;;13.21;100.00;100723.91;4981063;28;20368;-66
2023/09/13 06:15:18;;;;;;;3.53;1.40;;;;;;;13.29;100.00;100720.41;4981124;28;20092;-66
2023/09/13 06:17:44;;;;;;;4.30;1.20;;;;;;;13.33;100.00;100724.25;4981082;28;20038;-67
2023/09/13 06:20:10;;;;;;;3.38;1.20;;;;;;;13.40;100.00;100728.28;4996806;28;20068;-67
2023/09/13 06:22:35;;;;;;;4.47;1.20;;;;;;;13.47;100.00;100732.63;4980661;28;20496;-67
2023/09/13 06:25:01;;;;;;;2.67;1.10;;;;;;;13.54;100.00;100738.63;4980993;28;20030;-67
2023/09/13 06:27:26;;;;;;;2.95;1.15;;;;;;;13.64;100.00;100741.22;4980951;28;20026;-67
2023/09/13 06:29:52;;;;;;;4.15;1.02;;;;;;;13.75;100.00;100739.06;4980756;28;20042;-67
2023/09/13 06:32:17;;;;;;;4.90;1.13;;;;;;;13.87;100.00;100747.75;4998217;28;20030;-67
2023/09/13 06:34:42;;;;;;;5.68;1.58;;;;;;;13.98;100.00;100745.56;4980845;28;20030;-67
2023/09/13 06:37:08;;;;;;;4.35;1.38;;;;;;;14.08;100.00;100756.53;4996762;28;20042;-67
2023/09/13 06:39:34;;;;;;;3.17;1.05;;;;;;;14.20;100.00;100744.81;4980637;28;20526;-67
2023/09/13 06:42:01;;;;;;;4.88;1.00;;;;;;;14.33;100.00;100748.75;4980982;28;20401;-67
2023/09/13 06:44:27;;;;;;;4.25;1.58;;;;;;;14.45;100.00;100754.59;4980633;28;20026;-67
2023/09/13 06:46:52;;;;;;;4.53;1.25;;;;;;;14.58;100.00;100752.97;4996842;28;20044;-67
2023/09/13 06:49:18;;;;;;;4.93;1.23;;;;;;;14.71;100.00;100758.50;4997512;28;20430;-67
2023/09/13 06:51:43;;;;;;;4.85;1.08;;;;;;;14.84;100.00;100759.56;4996464;28;20039;-67
2023/09/13 06:54:09;;;;;;;4.72;1.20;;;;;;;14.99;100.00;100758.41;4980710;28;20104;-67
2023/09/13 06:56:34;;;;;;;3.03;1.25;;;;;;;15.13;100.00;100761.13;4980619;28;20033;-67
2023/09/13 06:59:00;;;;;;;4.78;1.20;;;;;;;15.27;100.00;100758.25;4996656;28;20407;-67
2023/09/13 07:01:26;;;;;;;3.53;1.13;;;;;;;15.42;100.00;100758.66;4980598;28;20340;-67
2023/09/13 07:03:51;;;;;;;4.32;1.00;;;;;;;15.57;100.00;100770.59;4996507;28;20031;-67
2023/09/13 07:06:17;;;;;;;4.38;1.00;;;;;;;15.72;100.00;100770.22;4996530;28;20061;-66
2023/09/13 07:08:42;;;;;;;4.88;1.20;;;;;;;15.88;100.00;100775.38;4996234;28;20026;-67
2023/09/13 07:11:08;;;;;;;6.22;1.15;;;;;;;16.02;100.00;100764.91;4980121;28;20081;-67
2023/09/13 07:13:33;;;;;;;3.63;1.33;;;;;;;16.15;100.00;100768.72;4980374;28;20073;-67
2023/09/13 07:15:59;;;;;;;6.07;1.45;;;;;;;16.28;100.00;100774.19;4980436;28;20057;-67
2023/09/13 07:18:24;;;;;;;2.95;1.27;;;;;;;16.46;100.00;100771.41;4980374;28;20446;-66
2023/09/13 07:20:50;;;;;;;4.95;1.33;;;;;;;16.59;100.00;100776.06;4947737;28;20062;-67
2023/09/13 07:23:15;;;;;;;4.95;1.42;;;;;;;16.74;100.00;100769.97;4996481;28;20430;-67
2023/09/13 07:25:41;;;;;;;6.80;1.55;;;;;;;16.88;100.00;100777.41;4997741;28;20479;-67
2023/09/13 07:28:06;;;;;;;3.95;1.52;;;;;;;17.00;100.00;100766.38;4980328;28;20471;-67
2023/09/13 07:30:31;;;;;;;6.97;1.42;;;;;;;17.15;100.00;100765.84;4978275;28;20038;-67
2023/09/13 07:32:57;;;;;;;4.78;1.40;;;;;;;17.30;100.00;100769.28;5003019;28;20371;-66
2023/09/13 07:35:23;;;;;;;4.47;1.30;;;;;;;17.46;100.00;100758.34;4996243;28;20474;-67
2023/09/13 07:37:49;;;;;;;7.20;1.85;;;;;;;17.60;100.00;100771.00;4995923;28;20045;-67
2023/09/13 07:40:14;;;;;;;7.00;1.73;;;;;;;17.73;100.00;100762.72;4964040;28;20030;-67
2023/09/13 07:42:40;;;;;;;5.75;1.33;;;;;;;17.89;100.00;100758.22;4996399;28;20022;-67
2023/09/13 07:45:07;;;;;;;5.03;1.30;;;;;;;18.05;100.00;100758.47;4996506;28;20394;-67
2023/09/13 07:47:32;;;;;;;5.78;1.35;;;;;;;18.21;100.00;100767.16;4979991;28;20037;-67
2023/09/13 07:49:58;;;;;;;6.63;1.70;;;;;;;18.36;100.00;100772.19;4979951;28;20482;-67
2023/09/13 07:52:24;;;;;;;7.30;1.50;;;;;;;18.51;100.00;100780.03;4963545;28;20027;-67
2023/09/13 07:54:50;;;;;;;5.35;1.58;;;;;;;18.67;100.00;100782.25;5008432;28;20117;-68
2023/09/13 07:57:16;;;;;;;6.05;1.40;;;;;;;18.81;100.00;100788.47;4980000;28;20041;-67
2023/09/13 07:59:41;;;;;;;6.82;1.80;;;;;;;18.98;100.00;100798.75;4996483;28;20034;-67
2023/09/13 08:02:07;;;;;;;6.10;1.38;;;;;;;19.11;100.00;100793.97;4967412;28;20019;-67
2023/09/13 08:04:33;;;;;;;6.28;1.50;;;;;;;19.26;100.00;100801.81;4983324;28;20038;-67
2023/09/13 08:06:59;;;;;;;7.03;1.73;;;;;;;19.39;100.00;100808.31;4983392;28;20057;-67
2023/09/13 08:09:25;;;;;;;4.82;1.80;;;;;;;19.51;100.00;100810.34;4983507;28;20037;-67
2023/09/13 08:11:50;;;;;;;9.55;2.25;;;;;;;19.66;100.00;100811.69;4999207;28;20058;-67
2023/09/13 08:14:16;;;;;;;5.63;2.10;;;;;;;19.76;100.00;100812.06;4999783;28;20041;-67
2023/09/13 08:16:41;;;;;;;6.97;2.25;;;;;;;19.90;100.00;100819.38;4983028;28;20045;-67
2023/09/13 08:19:08;;;;;;;6.97;2.30;;;;;;;20.01;100.00;100814.94;4966711;28;20026;-67
2023/09/13 08:21:33;;;;;;;8.73;1.90;;;;;;;20.10;100.00;100821.28;5000372;28;20057;-67
2023/09/13 08:23:59;;;;;;;10.77;2.45;;;;;;;20.23;100.00;100822.94;4982993;28;20398;-67
2023/09/13 08:26:25;;;;;;;6.40;2.08;;;;;;;20.29;100.00;100826.34;4982409;28;20038;-67
2023/09/13 08:28:51;;;;;;;10.85;2.72;;;;;;;20.35;100.00;100821.28;4999994;28;20208;-66
2023/09/13 08:31:17;;;;;;;11.18;2.08;;;;;;;20.48;100.00;100828.59;4983055;28;20390;-67
2023/09/13 08:33:43;;;;;;;3.95;1.83;;;;;;;20.57;100.00;100829.31;4966977;28;20027;-67
2023/09/13 08:36:08;;;;;;;8.18;2.05;;;;;;;20.66;100.00;100827.16;4981567;28;20030;-67
2023/09/13 08:38:34;;;;;;;8.35;2.22;;;;;;;20.79;100.00;100836.44;4966128;28;20037;-67
2023/09/13 08:40:59;;;;;;;8.20;2.10;;;;;;;20.87;100.00;100840.31;4980805;28;20026;-67
2023/09/13 08:43:25;;;;;;;6.57;2.08;;;;;;;20.95;100.00;100839.38;5000104;28;20022;-67
2023/09/13 08:45:51;;;;;;;5.88;1.70;;;;;;;21.02;100.00;100833.09;4982711;28;20065;-67
2023/09/13 08:48:18;;;;;;;6.95;2.13;;;;;;;21.09;100.00;100845.44;4982777;28;20429;-67
2023/09/13 08:50:44;;;;;;;8.30;1.73;;;;;;;21.17;100.00;100844.47;4982784;28;20380;-67
2023/09/13 08:53:10;;;;;;;6.55;1.80;;;;;;;21.23;100.00;100838.53;4966321;28;20033;-67
2023/09/13 08:55:36;;;;;;;6.15;1.70;;;;;;;21.34;100.00;100842.50;4982722;28;20030;-67
2023/09/13 08:58:02;;;;;;;10.30;2.22;;;;;;;21.40;100.00;100844.78;4982691;28;20026;-67
2023/09/13 09:00:30;;;;;;;5.40;1.63;;;;;;;21.50;100.00;100851.06;4982618;28;20034;-67
2023/09/13 09:02:55;;;;;;;9.00;2.28;;;;;;;21.60;100.00;100857.03;4982813;28;20026;-67
2023/09/13 09:05:22;;;;;;;4.47;1.33;;;;;;;21.73;100.00;100862.63;4982374;28;20497;-67
2023/09/13 09:07:47;;;;;;;7.13;2.10;;;;;;;21.79;100.00;100861.19;4966385;28;20042;-67
2023/09/13 09:10:13;;;;;;;7.93;2.35;;;;;;;21.91;100.00;100860.28;4982080;28;20043;-67
2023/09/13 09:12:41;;;;;;;5.10;1.80;;;;;;;22.01;100.00;100856.94;4997749;28;20030;-67
2023/09/13 09:15:08;;;;;;;5.78;1.80;;;;;;;22.15;100.00;100862.13;4982404;28;20026;-67
2023/09/13 09:17:33;;;;;;;5.25;1.70;;;;;;;22.25;100.00;100856.78;4997288;28;20550;-67
2023/09/13 09:19:59;;;;;;;8.18;1.80;;;;;;;22.30;100.00;100859.34;4981843;28;20053;-67
2023/09/13 09:22:24;;;;;;;6.32;1.75;;;;;;;22.45;100.00;100863.31;4981931;28;20030;-67
2023/09/13 09:24:50;;;;;;;7.00;1.70;;;;;;;22.57;100.00;100864.44;4998298;28;20046;-67
2023/09/13 09:27:16;;;;;;;5.63;1.27;;;;;;;22.70;100.00;100863.13;4981890;28;20034;-67
2023/09/13 09:29:42;;;;;;;6.15;1.70;;;;;;;22.82;100.00;100867.88;4981863;28;20034;-67
2023/09/13 09:32:08;;;;;;;4.68;1.65;;;;;;;22.88;100.00;100863.56;4981022;28;20054;-67
2023/09/13 09:34:37;;;;;;;4.25;1.80;;;;;;;23.00;100.00;100863.44;4997877;28;20048;-67
2023/09/13 09:37:07;;;;;;;5.60;1.92;;;;;;;23.09;100.00;100868.91;4985217;28;20034;-67
2023/09/13 09:39:41;;;;;;;6.45;1.50;;;;;;;23.15;100.00;100864.56;4982351;28;20034;-67
2023/09/13 09:42:07;;;;;;;3.17;1.15;;;;;;;23.30;100.00;100865.72;4981691;28;20026;-67
2023/09/13 09:44:33;;;;;;;6.47;1.58;;;;;;;23.37;100.00;100863.03;4981715;28;20035;-67
2023/09/13 09:46:58;;;;;;;8.27;1.90;;;;;;;23.50;100.00;100863.69;4981789;28;20034;-67
2023/09/13 09:49:24;;;;;;;6.68;1.42;;;;;;;23.62;100.00;100872.03;4981469;28;20030;-67
2023/09/13 09:51:50;;;;;;;4.45;1.63;;;;;;;23.74;100.00;100877.59;4955632;28;20042;-67
2023/09/13 09:54:15;;;;;;;5.93;1.50;;;;;;;23.78;100.00;100886.97;4977015;28;20065;-67
2023/09/13 09:56:41;;;;;;;8.65;1.88;;;;;;;23.65;100.00;100893.97;4981429;28;20042;-67
2023/09/13 09:59:06;;;;;;;6.35;1.80;;;;;;;23.69;100.00;100894.88;4981369;28;20089;-67
2023/09/13 10:01:31;;;;;;;4.07;1.52;;;;;;;23.60;100.00;100891.47;4981588;28;20099;-67
2023/09/13 10:04:08;;;;;;;6.32;1.80;;;;;;;23.56;100.00;100885.69;4998734;28;20038;-67
2023/09/13 10:06:33;;;;;;;4.57;1.70;;;;;;;23.41;100.00;100895.91;4979727;28;20041;-67
2023/09/13 10:08:59;;;;;;;6.25;1.70;;;;;;;23.29;100.00;100896.06;4980761;28;20038;-67
2023/09/13 10:11:25;;;;;;;7.30;2.10;;;;;;;23.23;100.00;100899.56;4980894;28;20129;-67
2023/09/13 10:13:50;;;;;;;3.22;1.65;;;;;;;23.03;100.00;100890.22;4981040;28;20045;-67
2023/09/13 10:16:16;;;;;;;6.32;1.80;;;;;;;22.97;100.00;100901.00;4997363;28;20037;-67
2023/09/13 10:18:50;;;;;;;7.05;1.83;;;;;;;22.89;100.00;100897.16;4979397;28;20032;-67
2023/09/13 10:21:26;;;;;;;5.82;2.00;;;;;;;22.69;100.00;100904.75;5002868;28;20455;-67
2023/09/13 10:24:04;;;;;;;4.95;1.63;;;;;;;22.69;100.00;100903.94;4993373;28;20487;-68
2023/09/13 10:26:30;;;;;;;5.75;1.50;;;;;;;22.66;100.00;100905.50;4964986;28;20030;-67
2023/09/13 10:28:57;;;;;;;3.70;1.40;;;;;;;22.56;100.00;100913.72;4980723;28;20395;-67
2023/09/13 10:31:32;;;;;;;6.97;1.88;;;;;;;22.56;100.00;100911.72;4980897;28;20509;-68
2023/09/13 10:34:01;;;;;;;5.70;1.63;;;;;;;22.51;100.00;100904.34;4995507;28;20038;-67
2023/09/13 10:36:27;;;;;;;4.22;1.90;;;;;;;22.46;100.00;100904.59;4978726;28;20086;-67
2023/09/13 10:39:14;;;;;;;4.20;1.90;;;;;;;22.44;100.00;100904.16;4980858;28;20394;-66
2023/09/13 10:41:43;;;;;;;3.58;1.40;;;;;;;22.45;100.00;100919.09;4996775;28;20026;-67
2023/09/13 10:44:09;;;;;;;4.88;2.03;;;;;;;22.44;100.00;100903.31;4979149;28;20042;-67
2023/09/13 10:46:34;;;;;;;3.90;1.80;;;;;;;22.49;100.00;100901.03;4995992;28;20034;-67
2023/09/13 10:49:00;;;;;;;4.03;2.00;;;;;;;22.48;100.00;100899.41;4996794;28;20031;-67
2023/09/13 10:51:26;;;;;;;7.47;1.65;;;;;;;22.50;100.00;100908.34;4979891;28;20041;-67
2023/09/13 10:53:51;;;;;;;5.25;1.70;;;;;;;22.55;100.00;100903.59;4980515;28;20431;-67
2023/09/13 10:56:18;;;;;;;4.95;1.80;;;;;;;22.55;100.00;100907.25;4980609;28;20030;-67
2023/09/13 10:58:45;;;;;;;5.47;2.00;;;;;;;22.62;100.00;100913.09;4979256;28;20034;-67
2023/09/13 11:01:11;;;;;;;4.38;1.55;;;;;;;22.65;100.00;100908.69;4964885;28;20039;-67
2023/09/13 11:03:36;;;;;;;4.07;1.60;;;;;;;22.77;100.00;100911.44;4964497;28;20502;-67
2023/09/13 11:06:02;;;;;;;5.80;1.70;;;;;;;22.79;100.00;100909.06;4980206;28;20030;-67
2023/09/13 11:08:29;;;;;;;3.85;1.70;;;;;;;22.84;100.00;100917.25;4980437;28;20034;-67
2023/09/13 11:10:55;;;;;;;2.60;1.38;;;;;;;22.86;100.00;100917.72;4980442;28;20116;-67
2023/09/13 11:13:29;;;;;;;5.40;1.50;;;;;;;23.01;100.00;100912.41;4980789;28;20034;-67